sensor_id;sensor_type;location;lat;lon;timestamp;P1;durP1;ratioP1;P2;durP2;ratioP2
19231;SDS011;9750;48.730;10.294;2024-03-08T00:02:14;24.80;;;18.00;;
19231;SDS011;9750;48.730;10.294;2024-03-08T00:04:41;23.73;;;18.63;;
19231;SDS011;9750;48.730;10.294;2024-03-08T00:07:10;26.00;;;18.60;;
19231;SDS011;9750;48.730;10.294;2024-03-08T00:09:38;27.33;;;18.77;;
19231;SDS011;9750;48.730;10.294;2024-03-08T00:12:07;26.33;;;19.57;;
19231;SDS011;9750;48.730;10.294;2024-03-08T00:14:35;26.73;;;19.33;;
19231;SDS011;9750;48.730;10.294;2024-03-08T00:17:04;26.07;;;18.40;;
19231;SDS011;9750;48.730;10.294;2024-03-08T00:19:31;24.70;;;18.23;;
19231;SDS011;9750;48.730;10.294;2024-03-08T00:21:58;24.20;;;17.87;;
19231;SDS011;9750;48.730;10.294;2024-03-08T00:24:26;25.70;;;18.33;;
19231;SDS011;9750;48.730;10.294;2024-03-08T00:26:54;23.80;;;18.77;;
19231;SDS011;9750;48.730;10.294;2024-03-08T00:29:22;25.27;;;18.37;;
19231;SDS011;9750;48.730;10.294;2024-03-08T00:31:50;29.33;;;18.60;;
19231;SDS011;9750;48.730;10.294;2024-03-08T00:34:17;25.03;;;18.30;;
19231;SDS011;9750;48.730;10.294;2024-03-08T00:36:44;26.73;;;18.37;;
19231;SDS011;9750;48.730;10.294;2024-03-08T00:39:12;24.57;;;18.10;;
19231;SDS011;9750;48.730;10.294;2024-03-08T00:41:40;25.40;;;18.27;;
19231;SDS011;9750;48.730;10.294;2024-03-08T00:44:07;24.60;;;18.30;;
19231;SDS011;9750;48.730;10.294;2024-03-08T00:46:36;25.07;;;18.60;;
19231;SDS011;9750;48.730;10.294;2024-03-08T00:49:04;25.17;;;18.37;;
19231;SDS011;9750;48.730;10.294;2024-03-08T00:51:31;28.37;;;19.37;;
19231;SDS011;9750;48.730;10.294;2024-03-08T00:53:59;25.70;;;18.40;;
19231;SDS011;9750;48.730;10.294;2024-03-08T00:56:26;23.13;;;17.83;;
19231;SDS011;9750;48.730;10.294;2024-03-08T00:58:53;25.67;;;17.73;;
19231;SDS011;9750;48.730;10.294;2024-03-08T01:01:20;26.93;;;18.83;;
19231;SDS011;9750;48.730;10.294;2024-03-08T01:03:51;25.43;;;17.87;;
19231;SDS011;9750;48.730;10.294;2024-03-08T01:06:18;25.03;;;18.57;;
19231;SDS011;9750;48.730;10.294;2024-03-08T01:08:46;24.30;;;18.20;;
19231;SDS011;9750;48.730;10.294;2024-03-08T01:11:13;24.07;;;18.13;;
19231;SDS011;9750;48.730;10.294;2024-03-08T01:13:40;23.93;;;17.40;;
19231;SDS011;9750;48.730;10.294;2024-03-08T01:16:08;25.70;;;18.40;;
19231;SDS011;9750;48.730;10.294;2024-03-08T01:18:35;26.20;;;18.50;;
19231;SDS011;9750;48.730;10.294;2024-03-08T01:21:04;26.77;;;18.80;;
19231;SDS011;9750;48.730;10.294;2024-03-08T01:23:31;23.57;;;17.83;;
19231;SDS011;9750;48.730;10.294;2024-03-08T01:25:59;25.57;;;18.27;;
19231;SDS011;9750;48.730;10.294;2024-03-08T01:28:27;26.03;;;18.03;;
19231;SDS011;9750;48.730;10.294;2024-03-08T01:30:54;27.97;;;18.87;;
19231;SDS011;9750;48.730;10.294;2024-03-08T01:33:22;27.13;;;18.80;;
19231;SDS011;9750;48.730;10.294;2024-03-08T01:35:50;28.30;;;19.90;;
19231;SDS011;9750;48.730;10.294;2024-03-08T01:38:20;23.50;;;17.13;;
19231;SDS011;9750;48.730;10.294;2024-03-08T01:40:47;24.93;;;18.43;;
19231;SDS011;9750;48.730;10.294;2024-03-08T01:43:16;25.50;;;18.73;;
19231;SDS011;9750;48.730;10.294;2024-03-08T01:45:47;25.53;;;18.40;;
19231;SDS011;9750;48.730;10.294;2024-03-08T01:48:15;24.80;;;18.30;;
19231;SDS011;9750;48.730;10.294;2024-03-08T01:50:44;28.17;;;19.90;;
19231;SDS011;9750;48.730;10.294;2024-03-08T01:53:12;26.97;;;19.00;;
19231;SDS011;9750;48.730;10.294;2024-03-08T01:55:44;27.40;;;19.10;;
19231;SDS011;9750;48.730;10.294;2024-03-08T01:58:13;24.40;;;18.13;;
19231;SDS011;9750;48.730;10.294;2024-03-08T02:00:41;25.47;;;18.87;;
19231;SDS011;9750;48.730;10.294;2024-03-08T02:03:10;28.43;;;20.33;;
19231;SDS011;9750;48.730;10.294;2024-03-08T02:05:37;29.03;;;21.03;;
19231;SDS011;9750;48.730;10.294;2024-03-08T02:08:08;27.53;;;19.47;;
19231;SDS011;9750;48.730;10.294;2024-03-08T02:10:39;25.73;;;18.63;;
19231;SDS011;9750;48.730;10.294;2024-03-08T02:13:08;28.77;;;19.53;;
19231;SDS011;9750;48.730;10.294;2024-03-08T02:15:52;27.67;;;19.17;;
19231;SDS011;9750;48.730;10.294;2024-03-08T02:18:20;25.70;;;18.17;;
19231;SDS011;9750;48.730;10.294;2024-03-08T02:20:50;27.17;;;17.97;;
19231;SDS011;9750;48.730;10.294;2024-03-08T02:23:18;28.67;;;20.67;;
19231;SDS011;9750;48.730;10.294;2024-03-08T02:25:46;26.27;;;19.70;;
19231;SDS011;9750;48.730;10.294;2024-03-08T02:28:13;28.97;;;20.10;;
19231;SDS011;9750;48.730;10.294;2024-03-08T02:30:41;25.30;;;18.53;;
19231;SDS011;9750;48.730;10.294;2024-03-08T02:33:08;28.60;;;20.10;;
19231;SDS011;9750;48.730;10.294;2024-03-08T02:35:35;31.03;;;19.80;;
19231;SDS011;9750;48.730;10.294;2024-03-08T02:38:04;27.53;;;20.27;;
19231;SDS011;9750;48.730;10.294;2024-03-08T02:40:32;27.00;;;19.93;;
19231;SDS011;9750;48.730;10.294;2024-03-08T02:42:59;27.33;;;20.23;;
19231;SDS011;9750;48.730;10.294;2024-03-08T02:45:26;28.47;;;19.57;;
19231;SDS011;9750;48.730;10.294;2024-03-08T02:47:54;27.60;;;20.23;;
19231;SDS011;9750;48.730;10.294;2024-03-08T02:50:22;26.53;;;19.70;;
19231;SDS011;9750;48.730;10.294;2024-03-08T02:52:50;28.77;;;20.00;;
19231;SDS011;9750;48.730;10.294;2024-03-08T02:55:19;27.27;;;20.57;;
19231;SDS011;9750;48.730;10.294;2024-03-08T02:57:46;29.37;;;19.60;;
19231;SDS011;9750;48.730;10.294;2024-03-08T03:00:14;27.27;;;20.00;;
19231;SDS011;9750;48.730;10.294;2024-03-08T03:02:42;27.57;;;20.30;;
19231;SDS011;9750;48.730;10.294;2024-03-08T03:05:15;27.33;;;19.83;;
19231;SDS011;9750;48.730;10.294;2024-03-08T03:07:43;28.53;;;19.80;;
19231;SDS011;9750;48.730;10.294;2024-03-08T03:10:10;27.63;;;20.03;;
19231;SDS011;9750;48.730;10.294;2024-03-08T03:12:43;27.53;;;20.20;;
19231;SDS011;9750;48.730;10.294;2024-03-08T03:15:11;29.20;;;20.43;;
19231;SDS011;9750;48.730;10.294;2024-03-08T03:17:39;27.20;;;19.87;;
19231;SDS011;9750;48.730;10.294;2024-03-08T03:20:07;26.43;;;20.00;;
19231;SDS011;9750;48.730;10.294;2024-03-08T03:22:39;28.17;;;20.33;;
19231;SDS011;9750;48.730;10.294;2024-03-08T03:25:07;27.27;;;19.37;;
19231;SDS011;9750;48.730;10.294;2024-03-08T03:27:35;30.03;;;20.97;;
19231;SDS011;9750;48.730;10.294;2024-03-08T03:30:06;29.50;;;20.30;;
19231;SDS011;9750;48.730;10.294;2024-03-08T03:32:46;27.60;;;20.37;;
19231;SDS011;9750;48.730;10.294;2024-03-08T03:38:33;27.10;;;19.83;;
19231;SDS011;9750;48.730;10.294;2024-03-08T03:41:01;27.63;;;20.63;;
19231;SDS011;9750;48.730;10.294;2024-03-08T03:43:35;29.10;;;19.70;;
19231;SDS011;9750;48.730;10.294;2024-03-08T03:46:06;31.60;;;21.23;;
19231;SDS011;9750;48.730;10.294;2024-03-08T03:48:35;30.57;;;21.10;;
19231;SDS011;9750;48.730;10.294;2024-03-08T03:51:03;30.63;;;21.90;;
19231;SDS011;9750;48.730;10.294;2024-03-08T03:53:30;29.33;;;20.93;;
19231;SDS011;9750;48.730;10.294;2024-03-08T03:55:57;28.90;;;21.20;;
19231;SDS011;9750;48.730;10.294;2024-03-08T03:58:25;31.23;;;21.70;;
19231;SDS011;9750;48.730;10.294;2024-03-08T04:00:52;28.30;;;20.97;;
19231;SDS011;9750;48.730;10.294;2024-03-08T04:03:21;28.20;;;20.27;;
19231;SDS011;9750;48.730;10.294;2024-03-08T04:06:03;30.13;;;21.50;;
19231;SDS011;9750;48.730;10.294;2024-03-08T04:08:31;31.20;;;20.87;;
19231;SDS011;9750;48.730;10.294;2024-03-08T04:10:59;28.77;;;20.37;;
19231;SDS011;9750;48.730;10.294;2024-03-08T04:13:27;29.53;;;22.07;;
19231;SDS011;9750;48.730;10.294;2024-03-08T04:15:54;33.60;;;21.77;;
19231;SDS011;9750;48.730;10.294;2024-03-08T04:18:23;32.20;;;22.73;;
19231;SDS011;9750;48.730;10.294;2024-03-08T04:20:50;32.20;;;22.20;;
19231;SDS011;9750;48.730;10.294;2024-03-08T04:23:18;30.37;;;21.97;;
19231;SDS011;9750;48.730;10.294;2024-03-08T04:25:45;30.83;;;21.90;;
19231;SDS011;9750;48.730;10.294;2024-03-08T04:28:12;31.70;;;21.87;;
19231;SDS011;9750;48.730;10.294;2024-03-08T04:30:40;33.50;;;21.97;;
19231;SDS011;9750;48.730;10.294;2024-03-08T04:33:07;31.10;;;22.33;;
19231;SDS011;9750;48.730;10.294;2024-03-08T04:35:36;31.73;;;21.90;;
19231;SDS011;9750;48.730;10.294;2024-03-08T04:38:03;30.67;;;21.90;;
19231;SDS011;9750;48.730;10.294;2024-03-08T04:40:31;29.27;;;21.40;;
19231;SDS011;9750;48.730;10.294;2024-03-08T04:42:59;30.07;;;21.43;;
19231;SDS011;9750;48.730;10.294;2024-03-08T04:45:27;32.20;;;22.47;;
19231;SDS011;9750;48.730;10.294;2024-03-08T04:47:54;31.40;;;21.67;;
19231;SDS011;9750;48.730;10.294;2024-03-08T04:50:21;27.70;;;20.10;;
19231;SDS011;9750;48.730;10.294;2024-03-08T04:52:51;31.97;;;21.27;;
19231;SDS011;9750;48.730;10.294;2024-03-08T04:55:18;29.57;;;22.07;;
19231;SDS011;9750;48.730;10.294;2024-03-08T04:57:46;29.73;;;21.07;;
19231;SDS011;9750;48.730;10.294;2024-03-08T05:00:14;29.47;;;21.90;;
19231;SDS011;9750;48.730;10.294;2024-03-08T05:02:41;30.33;;;21.83;;
19231;SDS011;9750;48.730;10.294;2024-03-08T05:05:09;29.13;;;20.10;;
19231;SDS011;9750;48.730;10.294;2024-03-08T05:07:37;29.27;;;21.57;;
19231;SDS011;9750;48.730;10.294;2024-03-08T05:10:07;29.03;;;22.17;;
19231;SDS011;9750;48.730;10.294;2024-03-08T05:12:35;29.87;;;20.93;;
19231;SDS011;9750;48.730;10.294;2024-03-08T05:15:04;30.27;;;22.27;;
19231;SDS011;9750;48.730;10.294;2024-03-08T05:17:32;32.83;;;22.63;;
19231;SDS011;9750;48.730;10.294;2024-03-08T05:19:59;29.43;;;21.53;;
19231;SDS011;9750;48.730;10.294;2024-03-08T05:22:27;31.33;;;22.20;;
19231;SDS011;9750;48.730;10.294;2024-03-08T05:24:54;31.60;;;22.70;;
19231;SDS011;9750;48.730;10.294;2024-03-08T05:27:23;32.67;;;22.80;;
19231;SDS011;9750;48.730;10.294;2024-03-08T05:29:50;32.17;;;22.67;;
19231;SDS011;9750;48.730;10.294;2024-03-08T05:32:17;39.33;;;22.70;;
19231;SDS011;9750;48.730;10.294;2024-03-08T05:34:44;33.27;;;22.73;;
19231;SDS011;9750;48.730;10.294;2024-03-08T05:37:12;31.37;;;23.50;;
19231;SDS011;9750;48.730;10.294;2024-03-08T05:39:39;30.33;;;21.27;;
19231;SDS011;9750;48.730;10.294;2024-03-08T05:42:07;33.37;;;23.23;;
19231;SDS011;9750;48.730;10.294;2024-03-08T05:44:36;32.17;;;23.20;;
19231;SDS011;9750;48.730;10.294;2024-03-08T05:47:05;32.33;;;22.83;;
19231;SDS011;9750;48.730;10.294;2024-03-08T05:49:33;35.33;;;24.60;;
19231;SDS011;9750;48.730;10.294;2024-03-08T05:52:00;31.80;;;24.03;;
19231;SDS011;9750;48.730;10.294;2024-03-08T05:54:27;33.97;;;23.17;;
19231;SDS011;9750;48.730;10.294;2024-03-08T05:56:55;30.30;;;21.17;;
19231;SDS011;9750;48.730;10.294;2024-03-08T05:59:22;32.47;;;23.93;;
19231;SDS011;9750;48.730;10.294;2024-03-08T06:01:51;36.50;;;25.20;;
19231;SDS011;9750;48.730;10.294;2024-03-08T06:04:18;32.50;;;23.63;;
19231;SDS011;9750;48.730;10.294;2024-03-08T06:06:46;34.90;;;23.07;;
19231;SDS011;9750;48.730;10.294;2024-03-08T06:09:13;31.33;;;22.17;;
19231;SDS011;9750;48.730;10.294;2024-03-08T06:11:47;31.27;;;22.07;;
19231;SDS011;9750;48.730;10.294;2024-03-08T06:14:15;32.00;;;23.33;;
19231;SDS011;9750;48.730;10.294;2024-03-08T06:16:43;31.87;;;21.97;;
19231;SDS011;9750;48.730;10.294;2024-03-08T06:19:13;29.97;;;22.07;;
19231;SDS011;9750;48.730;10.294;2024-03-08T06:21:40;30.27;;;22.03;;
19231;SDS011;9750;48.730;10.294;2024-03-08T06:24:08;29.60;;;22.07;;
19231;SDS011;9750;48.730;10.294;2024-03-08T06:26:37;28.13;;;21.17;;
19231;SDS011;9750;48.730;10.294;2024-03-08T06:29:06;31.67;;;22.47;;
19231;SDS011;9750;48.730;10.294;2024-03-08T06:31:33;27.53;;;20.77;;
19231;SDS011;9750;48.730;10.294;2024-03-08T06:34:04;31.53;;;23.83;;
19231;SDS011;9750;48.730;10.294;2024-03-08T06:36:34;31.07;;;23.20;;
19231;SDS011;9750;48.730;10.294;2024-03-08T06:39:03;33.83;;;23.13;;
19231;SDS011;9750;48.730;10.294;2024-03-08T06:41:34;36.97;;;23.33;;
19231;SDS011;9750;48.730;10.294;2024-03-08T06:44:02;32.37;;;23.07;;
19231;SDS011;9750;48.730;10.294;2024-03-08T06:46:30;34.77;;;23.30;;
19231;SDS011;9750;48.730;10.294;2024-03-08T06:48:57;32.83;;;22.10;;
19231;SDS011;9750;48.730;10.294;2024-03-08T06:51:24;30.77;;;22.30;;
19231;SDS011;9750;48.730;10.294;2024-03-08T06:53:53;31.90;;;22.40;;
19231;SDS011;9750;48.730;10.294;2024-03-08T06:56:20;30.70;;;21.87;;
19231;SDS011;9750;48.730;10.294;2024-03-08T06:58:48;34.63;;;22.07;;
19231;SDS011;9750;48.730;10.294;2024-03-08T07:01:15;32.90;;;20.90;;
19231;SDS011;9750;48.730;10.294;2024-03-08T07:03:42;29.03;;;21.33;;
19231;SDS011;9750;48.730;10.294;2024-03-08T07:06:10;31.97;;;22.93;;
19231;SDS011;9750;48.730;10.294;2024-03-08T07:08:37;32.00;;;21.27;;
19231;SDS011;9750;48.730;10.294;2024-03-08T07:11:06;32.67;;;22.50;;
19231;SDS011;9750;48.730;10.294;2024-03-08T07:13:33;31.83;;;22.00;;
19231;SDS011;9750;48.730;10.294;2024-03-08T07:16:01;30.87;;;21.27;;
19231;SDS011;9750;48.730;10.294;2024-03-08T07:18:28;34.63;;;23.93;;
19231;SDS011;9750;48.730;10.294;2024-03-08T07:20:56;38.93;;;24.33;;
19231;SDS011;9750;48.730;10.294;2024-03-08T07:23:23;32.43;;;22.47;;
19231;SDS011;9750;48.730;10.294;2024-03-08T07:26:10;31.43;;;21.43;;
19231;SDS011;9750;48.730;10.294;2024-03-08T07:28:38;33.50;;;22.87;;
19231;SDS011;9750;48.730;10.294;2024-03-08T07:31:05;31.33;;;21.70;;
19231;SDS011;9750;48.730;10.294;2024-03-08T07:33:46;33.10;;;23.10;;
19231;SDS011;9750;48.730;10.294;2024-03-08T07:39:16;34.13;;;23.50;;
19231;SDS011;9750;48.730;10.294;2024-03-08T07:41:45;34.80;;;24.53;;
19231;SDS011;9750;48.730;10.294;2024-03-08T07:44:13;36.40;;;24.03;;
19231;SDS011;9750;48.730;10.294;2024-03-08T07:46:40;39.07;;;26.20;;
19231;SDS011;9750;48.730;10.294;2024-03-08T07:49:07;33.63;;;24.13;;
19231;SDS011;9750;48.730;10.294;2024-03-08T07:51:37;33.73;;;23.60;;
19231;SDS011;9750;48.730;10.294;2024-03-08T07:54:04;35.10;;;24.67;;
19231;SDS011;9750;48.730;10.294;2024-03-08T07:56:34;32.23;;;21.90;;
19231;SDS011;9750;48.730;10.294;2024-03-08T07:59:04;36.17;;;24.23;;
19231;SDS011;9750;48.730;10.294;2024-03-08T08:01:31;33.63;;;24.60;;
19231;SDS011;9750;48.730;10.294;2024-03-08T08:03:59;33.47;;;22.50;;
19231;SDS011;9750;48.730;10.294;2024-03-08T08:06:27;36.73;;;24.00;;
19231;SDS011;9750;48.730;10.294;2024-03-08T08:08:57;33.37;;;22.87;;
19231;SDS011;9750;48.730;10.294;2024-03-08T08:11:25;31.97;;;23.13;;
19231;SDS011;9750;48.730;10.294;2024-03-08T08:13:53;35.23;;;23.93;;
19231;SDS011;9750;48.730;10.294;2024-03-08T08:16:24;36.93;;;24.30;;
19231;SDS011;9750;48.730;10.294;2024-03-08T08:18:51;35.83;;;24.10;;
19231;SDS011;9750;48.730;10.294;2024-03-08T08:21:19;35.87;;;22.90;;
19231;SDS011;9750;48.730;10.294;2024-03-08T08:23:47;33.20;;;23.60;;
19231;SDS011;9750;48.730;10.294;2024-03-08T08:26:14;34.97;;;24.53;;
19231;SDS011;9750;48.730;10.294;2024-03-08T08:28:42;35.40;;;23.40;;
19231;SDS011;9750;48.730;10.294;2024-03-08T08:31:11;35.57;;;23.83;;
19231;SDS011;9750;48.730;10.294;2024-03-08T08:33:40;36.73;;;22.60;;
19231;SDS011;9750;48.730;10.294;2024-03-08T08:36:09;32.70;;;22.60;;
19231;SDS011;9750;48.730;10.294;2024-03-08T08:38:36;35.57;;;24.63;;
19231;SDS011;9750;48.730;10.294;2024-03-08T08:41:04;33.70;;;23.47;;
19231;SDS011;9750;48.730;10.294;2024-03-08T08:43:33;30.10;;;21.93;;
19231;SDS011;9750;48.730;10.294;2024-03-08T08:46:00;33.70;;;24.20;;
19231;SDS011;9750;48.730;10.294;2024-03-08T08:48:27;36.13;;;24.53;;
19231;SDS011;9750;48.730;10.294;2024-03-08T08:50:57;36.40;;;23.83;;
19231;SDS011;9750;48.730;10.294;2024-03-08T08:53:24;35.83;;;24.57;;
19231;SDS011;9750;48.730;10.294;2024-03-08T08:55:53;38.50;;;25.40;;
19231;SDS011;9750;48.730;10.294;2024-03-08T08:58:21;38.67;;;26.37;;
19231;SDS011;9750;48.730;10.294;2024-03-08T09:00:48;48.83;;;30.43;;
19231;SDS011;9750;48.730;10.294;2024-03-08T09:03:17;37.70;;;26.40;;
19231;SDS011;9750;48.730;10.294;2024-03-08T09:05:45;43.43;;;27.90;;
19231;SDS011;9750;48.730;10.294;2024-03-08T09:08:14;46.23;;;29.80;;
19231;SDS011;9750;48.730;10.294;2024-03-08T09:10:41;32.90;;;23.57;;
19231;SDS011;9750;48.730;10.294;2024-03-08T09:13:08;35.73;;;24.23;;
19231;SDS011;9750;48.730;10.294;2024-03-08T09:15:36;38.20;;;25.50;;
19231;SDS011;9750;48.730;10.294;2024-03-08T09:18:05;35.17;;;24.37;;
19231;SDS011;9750;48.730;10.294;2024-03-08T09:20:34;38.27;;;25.50;;
19231;SDS011;9750;48.730;10.294;2024-03-08T09:23:02;34.37;;;24.00;;
19231;SDS011;9750;48.730;10.294;2024-03-08T09:25:31;38.97;;;26.63;;
19231;SDS011;9750;48.730;10.294;2024-03-08T09:27:59;39.80;;;27.03;;
19231;SDS011;9750;48.730;10.294;2024-03-08T09:30:26;35.60;;;25.20;;
19231;SDS011;9750;48.730;10.294;2024-03-08T09:32:54;37.97;;;26.17;;
19231;SDS011;9750;48.730;10.294;2024-03-08T09:35:21;39.37;;;26.13;;
19231;SDS011;9750;48.730;10.294;2024-03-08T09:37:48;43.27;;;25.60;;
19231;SDS011;9750;48.730;10.294;2024-03-08T09:40:16;56.27;;;40.57;;
19231;SDS011;9750;48.730;10.294;2024-03-08T09:42:46;37.17;;;25.97;;
19231;SDS011;9750;48.730;10.294;2024-03-08T09:45:14;51.60;;;34.20;;
19231;SDS011;9750;48.730;10.294;2024-03-08T09:47:43;36.00;;;28.80;;
19231;SDS011;9750;48.730;10.294;2024-03-08T09:50:11;33.33;;;24.20;;
19231;SDS011;9750;48.730;10.294;2024-03-08T09:52:39;34.60;;;22.57;;
19231;SDS011;9750;48.730;10.294;2024-03-08T09:55:07;33.23;;;23.87;;
19231;SDS011;9750;48.730;10.294;2024-03-08T09:57:36;33.63;;;24.73;;
19231;SDS011;9750;48.730;10.294;2024-03-08T10:00:06;30.13;;;22.57;;
19231;SDS011;9750;48.730;10.294;2024-03-08T10:02:45;34.70;;;23.60;;
19231;SDS011;9750;48.730;10.294;2024-03-08T10:05:12;31.27;;;23.53;;
19231;SDS011;9750;48.730;10.294;2024-03-08T10:07:39;33.20;;;24.53;;
19231;SDS011;9750;48.730;10.294;2024-03-08T10:10:07;31.53;;;23.27;;
19231;SDS011;9750;48.730;10.294;2024-03-08T10:12:37;33.80;;;23.00;;
19231;SDS011;9750;48.730;10.294;2024-03-08T10:15:07;30.03;;;22.27;;
19231;SDS011;9750;48.730;10.294;2024-03-08T10:17:35;29.70;;;22.97;;
19231;SDS011;9750;48.730;10.294;2024-03-08T10:20:02;32.03;;;24.80;;
19231;SDS011;9750;48.730;10.294;2024-03-08T10:22:40;33.03;;;24.03;;
19231;SDS011;9750;48.730;10.294;2024-03-08T10:25:08;35.20;;;24.93;;
19231;SDS011;9750;48.730;10.294;2024-03-08T10:27:37;37.13;;;26.20;;
19231;SDS011;9750;48.730;10.294;2024-03-08T10:30:08;34.10;;;25.23;;
19231;SDS011;9750;48.730;10.294;2024-03-08T10:32:39;32.80;;;23.00;;
19231;SDS011;9750;48.730;10.294;2024-03-08T10:35:07;34.83;;;24.33;;
19231;SDS011;9750;48.730;10.294;2024-03-08T10:37:36;37.07;;;26.87;;
19231;SDS011;9750;48.730;10.294;2024-03-08T10:40:12;34.70;;;24.67;;
19231;SDS011;9750;48.730;10.294;2024-03-08T10:42:47;34.33;;;24.70;;
19231;SDS011;9750;48.730;10.294;2024-03-08T10:45:23;33.90;;;24.50;;
19231;SDS011;9750;48.730;10.294;2024-03-08T10:48:02;34.80;;;24.13;;
19231;SDS011;9750;48.730;10.294;2024-03-08T10:50:37;32.87;;;23.63;;
19231;SDS011;9750;48.730;10.294;2024-03-08T10:53:05;32.77;;;24.00;;
19231;SDS011;9750;48.730;10.294;2024-03-08T10:55:34;28.37;;;22.30;;
19231;SDS011;9750;48.730;10.294;2024-03-08T10:58:06;32.37;;;23.70;;
19231;SDS011;9750;48.730;10.294;2024-03-08T11:00:35;30.03;;;22.77;;
19231;SDS011;9750;48.730;10.294;2024-03-08T11:03:03;34.30;;;25.30;;
19231;SDS011;9750;48.730;10.294;2024-03-08T11:08:18;34.70;;;25.17;;
19231;SDS011;9750;48.730;10.294;2024-03-08T11:10:49;33.13;;;22.67;;
19231;SDS011;9750;48.730;10.294;2024-03-08T11:13:33;31.97;;;22.33;;
19231;SDS011;9750;48.730;10.294;2024-03-08T11:16:03;32.10;;;23.93;;
19231;SDS011;9750;48.730;10.294;2024-03-08T11:18:35;35.37;;;24.60;;
19231;SDS011;9750;48.730;10.294;2024-03-08T11:21:02;33.93;;;24.70;;
19231;SDS011;9750;48.730;10.294;2024-03-08T11:23:32;34.23;;;25.97;;
19231;SDS011;9750;48.730;10.294;2024-03-08T11:32:05;35.07;;;26.23;;
19231;SDS011;9750;48.730;10.294;2024-03-08T11:34:36;34.83;;;26.80;;
19231;SDS011;9750;48.730;10.294;2024-03-08T11:37:04;34.73;;;24.90;;
19231;SDS011;9750;48.730;10.294;2024-03-08T11:39:35;30.80;;;22.93;;
19231;SDS011;9750;48.730;10.294;2024-03-08T11:42:03;27.83;;;21.47;;
19231;SDS011;9750;48.730;10.294;2024-03-08T11:44:31;29.43;;;22.53;;
19231;SDS011;9750;48.730;10.294;2024-03-08T11:46:59;33.70;;;23.70;;
19231;SDS011;9750;48.730;10.294;2024-03-08T11:49:28;30.43;;;22.43;;
19231;SDS011;9750;48.730;10.294;2024-03-08T11:51:56;28.83;;;22.10;;
19231;SDS011;9750;48.730;10.294;2024-03-08T11:54:23;29.30;;;21.57;;
19231;SDS011;9750;48.730;10.294;2024-03-08T11:56:51;29.33;;;21.87;;
19231;SDS011;9750;48.730;10.294;2024-03-08T11:59:20;26.10;;;20.13;;
19231;SDS011;9750;48.730;10.294;2024-03-08T12:02:00;29.67;;;21.47;;
19231;SDS011;9750;48.730;10.294;2024-03-08T12:04:32;29.47;;;22.03;;
19231;SDS011;9750;48.730;10.294;2024-03-08T12:07:01;29.63;;;21.40;;
19231;SDS011;9750;48.730;10.294;2024-03-08T12:09:35;30.40;;;21.60;;
19231;SDS011;9750;48.730;10.294;2024-03-08T12:12:02;28.07;;;21.43;;
19231;SDS011;9750;48.730;10.294;2024-03-08T12:14:31;30.33;;;22.73;;
19231;SDS011;9750;48.730;10.294;2024-03-08T12:16:59;30.90;;;23.03;;
19231;SDS011;9750;48.730;10.294;2024-03-08T12:19:27;28.23;;;21.87;;
19231;SDS011;9750;48.730;10.294;2024-03-08T12:21:56;28.67;;;21.63;;
19231;SDS011;9750;48.730;10.294;2024-03-08T12:24:23;31.17;;;23.20;;
19231;SDS011;9750;48.730;10.294;2024-03-08T12:26:52;30.73;;;23.97;;
19231;SDS011;9750;48.730;10.294;2024-03-08T12:29:21;31.87;;;22.70;;
19231;SDS011;9750;48.730;10.294;2024-03-08T12:31:52;28.97;;;21.03;;
19231;SDS011;9750;48.730;10.294;2024-03-08T12:34:21;29.67;;;21.87;;
19231;SDS011;9750;48.730;10.294;2024-03-08T12:36:48;25.73;;;20.50;;
19231;SDS011;9750;48.730;10.294;2024-03-08T12:39:18;31.23;;;22.77;;
19231;SDS011;9750;48.730;10.294;2024-03-08T12:41:52;26.97;;;21.30;;
19231;SDS011;9750;48.730;10.294;2024-03-08T12:44:20;28.97;;;21.30;;
19231;SDS011;9750;48.730;10.294;2024-03-08T12:46:47;28.70;;;22.40;;
19231;SDS011;9750;48.730;10.294;2024-03-08T12:49:16;28.33;;;22.13;;
19231;SDS011;9750;48.730;10.294;2024-03-08T12:51:47;28.20;;;22.27;;
19231;SDS011;9750;48.730;10.294;2024-03-08T12:54:14;26.73;;;20.67;;
19231;SDS011;9750;48.730;10.294;2024-03-08T12:56:43;27.87;;;21.17;;
19231;SDS011;9750;48.730;10.294;2024-03-08T12:59:10;26.30;;;20.27;;
19231;SDS011;9750;48.730;10.294;2024-03-08T13:01:38;30.83;;;20.67;;
19231;SDS011;9750;48.730;10.294;2024-03-08T13:04:05;28.37;;;22.33;;
19231;SDS011;9750;48.730;10.294;2024-03-08T13:06:36;26.47;;;21.07;;
19231;SDS011;9750;48.730;10.294;2024-03-08T13:09:06;29.07;;;20.77;;
19231;SDS011;9750;48.730;10.294;2024-03-08T13:11:33;27.87;;;21.43;;
19231;SDS011;9750;48.730;10.294;2024-03-08T13:14:03;28.80;;;21.03;;
19231;SDS011;9750;48.730;10.294;2024-03-08T13:16:31;25.07;;;19.33;;
19231;SDS011;9750;48.730;10.294;2024-03-08T13:19:00;26.33;;;20.43;;
19231;SDS011;9750;48.730;10.294;2024-03-08T13:21:27;23.90;;;18.67;;
19231;SDS011;9750;48.730;10.294;2024-03-08T13:23:58;24.60;;;18.97;;
19231;SDS011;9750;48.730;10.294;2024-03-08T13:26:26;24.77;;;19.53;;
19231;SDS011;9750;48.730;10.294;2024-03-08T13:28:57;24.33;;;19.37;;
19231;SDS011;9750;48.730;10.294;2024-03-08T13:31:26;22.50;;;18.63;;
19231;SDS011;9750;48.730;10.294;2024-03-08T13:33:54;22.87;;;18.13;;
19231;SDS011;9750;48.730;10.294;2024-03-08T13:36:23;22.77;;;18.77;;
19231;SDS011;9750;48.730;10.294;2024-03-08T13:38:54;24.33;;;18.73;;
19231;SDS011;9750;48.730;10.294;2024-03-08T13:41:24;24.47;;;19.10;;
19231;SDS011;9750;48.730;10.294;2024-03-08T13:43:51;24.83;;;17.87;;
19231;SDS011;9750;48.730;10.294;2024-03-08T13:46:21;25.60;;;17.97;;
19231;SDS011;9750;48.730;10.294;2024-03-08T13:48:50;24.53;;;18.63;;
19231;SDS011;9750;48.730;10.294;2024-03-08T13:51:19;24.53;;;18.57;;
19231;SDS011;9750;48.730;10.294;2024-03-08T13:53:47;28.57;;;19.23;;
19231;SDS011;9750;48.730;10.294;2024-03-08T13:56:17;23.93;;;17.83;;
19231;SDS011;9750;48.730;10.294;2024-03-08T13:58:44;22.17;;;17.53;;
19231;SDS011;9750;48.730;10.294;2024-03-08T14:01:11;21.03;;;16.87;;
19231;SDS011;9750;48.730;10.294;2024-03-08T14:03:39;22.63;;;16.63;;
19231;SDS011;9750;48.730;10.294;2024-03-08T14:06:08;21.93;;;16.13;;
19231;SDS011;9750;48.730;10.294;2024-03-08T14:08:36;20.53;;;16.30;;
19231;SDS011;9750;48.730;10.294;2024-03-08T14:11:03;20.37;;;16.33;;
19231;SDS011;9750;48.730;10.294;2024-03-08T14:13:40;20.20;;;16.23;;
19231;SDS011;9750;48.730;10.294;2024-03-08T14:16:10;20.60;;;16.40;;
19231;SDS011;9750;48.730;10.294;2024-03-08T14:18:37;19.93;;;16.07;;
19231;SDS011;9750;48.730;10.294;2024-03-08T14:21:05;20.77;;;15.83;;
19231;SDS011;9750;48.730;10.294;2024-03-08T14:23:35;23.77;;;17.30;;
19231;SDS011;9750;48.730;10.294;2024-03-08T14:26:02;22.13;;;16.83;;
19231;SDS011;9750;48.730;10.294;2024-03-08T14:28:32;22.40;;;15.70;;
19231;SDS011;9750;48.730;10.294;2024-03-08T14:30:59;17.97;;;15.17;;
19231;SDS011;9750;48.730;10.294;2024-03-08T14:33:35;21.03;;;15.77;;
19231;SDS011;9750;48.730;10.294;2024-03-08T14:36:04;20.13;;;16.30;;
19231;SDS011;9750;48.730;10.294;2024-03-08T14:38:32;23.03;;;16.37;;
19231;SDS011;9750;48.730;10.294;2024-03-08T14:41:01;21.43;;;15.07;;
19231;SDS011;9750;48.730;10.294;2024-03-08T14:43:29;19.57;;;15.67;;
19231;SDS011;9750;48.730;10.294;2024-03-08T14:45:57;19.30;;;16.10;;